Stations météo

réclame
Mon MeteoGroup
Norrkoping/Kungsangen, Suède (2571): Température de l'air & dewpoint: 19.02.2018 00:00:00 - 25.02.2018 00:00:00 (CET)Norrkoping/Kungsangen, Suède (2571): Vitesse du vent: 19.02.2018 00:00:00 - 25.02.2018 00:00:00 (CET)Norrkoping/Kungsangen, Suède (2571): Direction du vent: 19.02.2018 00:00:00 - 25.02.2018 00:00:00 (CET)Norrkoping/Kungsangen, Suède (2571): visibility: 19.02.2018 00:00:00 - 25.02.2018 00:00:00 (CET)
Date & Time tt [°C] td [°C] ff [km/h] ff [knt] dd vv [km]
25.02.2018 00:00:00 -8,0 -10,0 11 6 NNE 10
24.02.2018 23:00:00 -6,0 -9,0 11 6 NNE 10
24.02.2018 22:00:00 -6,0 -9,0 9 5 NNE 10
24.02.2018 21:00:00 -7,0 -9,0 8 4 NNE 10
24.02.2018 20:00:00 -7,0 -9,0 5 3 NNE 10
24.02.2018 19:00:00 -6,0 -9,0 8 4 NNE 10
24.02.2018 18:00:00 -6,0 -10,0 9 5 NNE 10
24.02.2018 17:00:00 -5,0 -10,0 13 7 NNE 10
24.02.2018 16:00:00 -4,0 -10,0 11 6 NNE 10
24.02.2018 15:00:00 -4,0 -10,0 9 5 NE 10
24.02.2018 14:00:00 -4,0 -10,0 9 5 ENE 10
24.02.2018 13:00:00 -5,0 -11,0 13 7 NE 10
24.02.2018 12:00:00 -5,0 -11,0 9 5 NE 10
24.02.2018 11:00:00 -6,0 -11,0 11 6 NNE 10
24.02.2018 10:00:00 -8,0 -11,0 18 10 NNE 10
24.02.2018 09:00:00 -8,0 -10,0 8 4 NNE 10
24.02.2018 08:00:00 - - - - - -
24.02.2018 07:00:00 -9,0 -10,0 13 7 N 10
24.02.2018 06:00:00 -8,0 -10,0 9 5 NNE 10
24.02.2018 05:00:00 -8,0 -10,0 16 9 NNE 10
24.02.2018 04:00:00 -9,0 -10,0 13 7 NNE 10
24.02.2018 03:00:00 -8,0 -9,0 11 6 NNE 10
24.02.2018 02:00:00 -10,0 -11,0 4 2 - 10
24.02.2018 01:00:00 -9,0 -10,0 4 2 W 10
24.02.2018 00:00:00 -8,0 -9,0 4 2 - 10
23.02.2018 23:00:00 -6,0 -8,0 11 6 NE 10
23.02.2018 22:00:00 -5,0 -7,0 13 7 NE 10
23.02.2018 21:00:00 -4,0 -7,0 16 9 NE 10
23.02.2018 20:00:00 -4,0 -7,0 18 10 NE 10
23.02.2018 19:00:00 -3,0 -6,0 16 9 NNE 10
23.02.2018 18:00:00 -3,0 -7,0 13 7 NNE 10
23.02.2018 17:00:00 -3,0 -7,0 15 8 NNE 10
23.02.2018 16:00:00 -2,0 -6,0 15 8 N 10
23.02.2018 15:00:00 -2,0 -6,0 15 8 NNE 10
23.02.2018 14:00:00 -2,0 -5,0 15 8 NNE 10
23.02.2018 13:00:00 -2,0 -5,0 11 6 NE 10
23.02.2018 12:00:00 -2,0 -4,0 13 7 NNE 10
23.02.2018 11:00:00 -2,0 -4,0 9 5 N 6
23.02.2018 10:00:00 -3,0 -4,0 13 7 NNW 10
23.02.2018 09:00:00 -3,0 -3,0 13 7 NNW 9
23.02.2018 08:00:00 -3,0 -3,0 13 7 NW 9
23.02.2018 07:00:00 -3,0 -3,0 11 6 WNW 3,5
23.02.2018 06:00:00 -2,0 -3,0 15 8 WNW 10
23.02.2018 05:00:00 -2,0 -3,0 15 8 WNW 10
23.02.2018 04:00:00 -2,0 -3,0 13 7 W 10
23.02.2018 03:00:00 -3,0 -4,0 11 6 W 10
23.02.2018 02:00:00 -3,0 -4,0 13 7 WSW 10
23.02.2018 01:00:00 -3,0 -4,0 13 7 WSW 10
23.02.2018 00:00:00 -3,0 -4,0 13 7 WSW 10
22.02.2018 23:00:00 -2,0 -4,0 11 6 WSW 10
22.02.2018 22:00:00 -3,0 -5,0 9 5 W 10
22.02.2018 21:00:00 -3,0 -5,0 11 6 WSW 10
22.02.2018 20:00:00 -3,0 -6,0 9 5 WSW 10
22.02.2018 19:00:00 -3,0 -6,0 11 6 WSW 10
22.02.2018 18:00:00 -3,0 -6,0 9 5 WSW 10
22.02.2018 17:00:00 -3,0 -7,0 5 3 SW 10
22.02.2018 16:00:00 -3,0 -6,0 9 5 W 10
22.02.2018 15:00:00 -3,0 -6,0 11 6 W 10
22.02.2018 14:00:00 -3,0 -6,0 9 5 W 10
22.02.2018 13:00:00 -3,0 -7,0 8 4 W 10
22.02.2018 12:00:00 -4,0 -7,0 9 5 W 10
22.02.2018 11:00:00 -4,0 -7,0 8 4 WNW 10
22.02.2018 10:00:00 -5,0 -6,0 0 0 N 10
22.02.2018 09:00:00 -6,0 -7,0 0 0 N 10
22.02.2018 08:00:00 -7,0 -7,0 2 1 - 10
22.02.2018 07:00:00 -7,0 -8,0 5 3 SW 10
22.02.2018 06:00:00 -7,0 -8,0 0 0 N 10
22.02.2018 05:00:00 -8,0 -9,0 0 0 N 10
22.02.2018 04:00:00 -9,0 -10,0 4 2 SW 10
22.02.2018 03:00:00 -10,0 -11,0 0 0 N 10
22.02.2018 02:00:00 -12,0 -13,0 0 0 N 10
22.02.2018 01:00:00 -14,0 -15,0 0 0 N 10
22.02.2018 00:00:00 -14,0 -15,0 0 0 N 8
21.02.2018 23:00:00 -14,0 -15,0 0 0 N 10
21.02.2018 22:00:00 -13,0 -14,0 2 1 ESE 9
21.02.2018 21:00:00 -13,0 -14,0 0 0 N 10
21.02.2018 20:00:00 -11,0 -12,0 2 1 - 10
21.02.2018 19:00:00 -11,0 -11,0 0 0 N 10
21.02.2018 18:00:00 -9,0 -10,0 0 0 N 10
21.02.2018 17:00:00 -7,0 -9,0 4 2 ENE 10
21.02.2018 16:00:00 -4,0 -7,0 4 2 - 10
21.02.2018 15:00:00 -4,0 -7,0 4 2 E 10
21.02.2018 14:00:00 -4,0 -7,0 5 3 E 9
21.02.2018 13:00:00 -2,0 -7,0 4 2 SSE 10
21.02.2018 12:00:00 -4,0 -6,0 4 2 SE 10
21.02.2018 11:00:00 -5,0 -6,0 5 3 ENE 10
21.02.2018 10:00:00 -5,0 -6,0 5 3 NE 5
21.02.2018 09:00:00 -5,0 -6,0 8 4 NNW 3,8
21.02.2018 08:00:00 -5,0 -6,0 0 0 N 5
21.02.2018 07:00:00 -6,0 -7,0 0 0 N 10
21.02.2018 06:00:00 -6,0 -7,0 2 1 SW 10
21.02.2018 05:00:00 -5,0 -7,0 5 3 NNE 10
21.02.2018 04:00:00 -5,0 -7,0 5 3 WNW 10
21.02.2018 03:00:00 -5,0 -7,0 5 3 N 10
21.02.2018 02:00:00 -5,0 -7,0 5 3 NNW 10
21.02.2018 01:00:00 -4,0 -7,0 5 3 NW 10
21.02.2018 00:00:00 -4,0 -7,0 4 2 NNW 10
20.02.2018 23:00:00 -4,0 -7,0 4 2 NNW 10
20.02.2018 22:00:00 -4,0 -8,0 5 3 NNW 10
20.02.2018 21:00:00 -4,0 -8,0 8 4 N 10
20.02.2018 20:00:00 -4,0 -7,0 0 0 N 10
20.02.2018 19:00:00 -4,0 -7,0 0 0 N 10
20.02.2018 18:00:00 -4,0 -7,0 5 3 E 10
20.02.2018 17:00:00 -3,0 -8,0 9 5 NNE 10
20.02.2018 16:00:00 -3,0 -7,0 8 4 N 10
20.02.2018 15:00:00 -3,0 -7,0 11 6 NNW 10
20.02.2018 14:00:00 -3,0 -7,0 8 4 NE 10
20.02.2018 13:00:00 -3,0 -8,0 8 4 NNW 10
20.02.2018 12:00:00 -3,0 -6,0 8 4 NE 10
20.02.2018 11:00:00 -4,0 -6,0 8 4 NNE 10
20.02.2018 10:00:00 -4,0 -6,0 8 4 NNE 9
20.02.2018 09:00:00 -5,0 -6,0 9 5 N 7
20.02.2018 08:00:00 -5,0 -6,0 9 5 NNE 7
20.02.2018 07:00:00 -4,0 -6,0 8 4 NNE 10
20.02.2018 06:00:00 -4,0 -6,0 9 5 NNE 10
20.02.2018 05:00:00 -4,0 -6,0 8 4 NE 10
20.02.2018 04:00:00 -4,0 -6,0 13 7 NE 10
20.02.2018 03:00:00 -4,0 -6,0 11 6 NE 10
20.02.2018 02:00:00 -4,0 -6,0 13 7 NNE 9
20.02.2018 01:00:00 -4,0 -6,0 15 8 NE 10
20.02.2018 00:00:00 -4,0 -6,0 15 8 NE 10
19.02.2018 23:00:00 -4,0 -6,0 16 9 NE 9
19.02.2018 22:00:00 -4,0 -6,0 18 10 NE 8
19.02.2018 21:00:00 -3,0 -5,0 16 9 NE 10
19.02.2018 20:00:00 -3,0 -5,0 24 13 ENE 10
19.02.2018 19:00:00 -3,0 -4,0 18 10 ENE 10
19.02.2018 18:00:00 -2,0 -4,0 22 12 NE 10
19.02.2018 17:00:00 -1,0 -3,0 18 10 NE 10
19.02.2018 16:00:00 -1,0 -2,0 22 12 ENE 10
19.02.2018 15:00:00 0,0 -2,0 26 14 ENE 10
19.02.2018 14:00:00 0,0 -1,0 28 15 ENE 10
19.02.2018 13:00:00 0,0 0,0 21 11 ENE 9
19.02.2018 12:00:00 1,0 -1,0 24 13 ENE 10
19.02.2018 11:00:00 1,0 0,0 16 9 ENE 10
19.02.2018 10:00:00 0,0 0,0 13 7 ENE 6
19.02.2018 09:00:00 -1,0 -1,0 9 5 NE 9
19.02.2018 08:00:00 -1,0 -1,0 8 4 ENE 8
19.02.2018 07:00:00 -2,0 -2,0 8 4 E 9
19.02.2018 06:00:00 -3,0 -3,0 5 3 E 10
19.02.2018 05:00:00 -3,0 -3,0 5 3 ESE 10
19.02.2018 04:00:00 -3,0 -3,0 4 2 E 9
19.02.2018 03:00:00 -4,0 -4,0 8 4 E 0,6
19.02.2018 02:00:00 -6,0 -6,0 8 4 ENE 2,3
19.02.2018 01:00:00 -3,0 -3,0 5 3 E 9
19.02.2018 00:00:00 -2,0 -2,0 4 2 - 10

tt = Température de l'air
td = dewpoint
ff = Vitesse du vent
dd = Direction du vent
vv = visibility

stations d'obs. à proximité